createdAt,value
2023-05-25T00:00:11.498Z,1.42
2023-05-25T00:02:39.597Z,1.08
2023-05-25T00:05:09.099Z,0.70
2023-05-25T00:07:35.854Z,1.27
2023-05-25T00:10:04.310Z,0.82
2023-05-25T00:12:30.842Z,0.90
2023-05-25T00:14:57.320Z,1.27
2023-05-25T00:17:24.186Z,1.35
2023-05-25T00:19:51.447Z,0.80
2023-05-25T00:22:18.047Z,1.35
2023-05-25T00:24:44.574Z,1.00
2023-05-25T00:27:11.101Z,1.05
2023-05-25T00:29:38.069Z,0.88
2023-05-25T00:32:05.049Z,1.23
2023-05-25T00:34:31.498Z,1.13
2023-05-25T00:36:58.031Z,0.88
2023-05-25T00:39:25.038Z,1.50
2023-05-25T00:41:51.613Z,1.33
2023-05-25T00:44:21.845Z,0.95
2023-05-25T00:46:50.805Z,1.17
2023-05-25T00:49:19.233Z,1.00
2023-05-25T00:51:47.652Z,1.35
2023-05-25T00:54:15.200Z,1.30
2023-05-25T00:56:47.497Z,1.35
2023-05-25T00:59:22.194Z,1.00
2023-05-25T01:01:53.938Z,1.33
2023-05-25T01:04:21.657Z,1.40
2023-05-25T01:06:49.112Z,0.82
2023-05-25T01:09:19.564Z,0.98
2023-05-25T01:11:49.791Z,0.90
2023-05-25T01:16:46.061Z,0.80
2023-05-25T01:19:12.685Z,1.13
2023-05-25T01:21:48.022Z,0.95
2023-05-25T01:24:32.769Z,1.30
2023-05-25T01:27:03.365Z,1.33
2023-05-25T01:29:34.623Z,1.08
2023-05-25T01:32:04.429Z,0.60
2023-05-25T01:34:33.737Z,1.20
2023-05-25T01:37:00.578Z,1.40
2023-05-25T01:39:27.304Z,1.10
2023-05-25T01:41:53.892Z,1.27
2023-05-25T01:44:20.967Z,1.60
2023-05-25T01:46:51.919Z,1.02
2023-05-25T01:49:38.830Z,1.08
2023-05-25T01:52:26.327Z,1.83
2023-05-25T01:55:15.683Z,1.88
2023-05-25T01:57:45.658Z,1.40
2023-05-25T02:00:13.193Z,0.77
2023-05-25T02:02:44.359Z,0.75
2023-05-25T02:05:11.575Z,0.75
2023-05-25T02:07:38.464Z,0.90
2023-05-25T02:10:05.839Z,0.82
2023-05-25T02:12:32.433Z,2.30
2023-05-25T02:14:58.972Z,0.70
2023-05-25T02:17:27.924Z,1.20
2023-05-25T02:19:54.655Z,0.93
2023-05-25T02:22:21.972Z,0.95
2023-05-25T02:24:48.477Z,0.77
2023-05-25T02:27:15.281Z,0.90
2023-05-25T02:29:42.032Z,0.80
2023-05-25T02:32:08.498Z,0.80
2023-05-25T02:34:35.595Z,1.08
2023-05-25T02:37:02.441Z,1.05
2023-05-25T02:39:29.040Z,0.93
2023-05-25T02:42:00.059Z,0.95
2023-05-25T02:44:27.528Z,1.15
2023-05-25T02:46:54.795Z,0.90
2023-05-25T02:49:21.414Z,1.00
2023-05-25T02:51:48.141Z,1.00
2023-05-25T02:54:14.782Z,0.93
2023-05-25T02:56:42.473Z,0.90
2023-05-25T02:59:09.444Z,1.05
2023-05-25T03:01:36.015Z,0.90
2023-05-25T03:04:02.665Z,0.88
2023-05-25T03:06:33.509Z,0.73
2023-05-25T03:09:08.518Z,0.60
2023-05-25T03:11:35.041Z,0.68
2023-05-25T03:14:03.704Z,0.93
2023-05-25T03:16:35.855Z,0.55
2023-05-25T03:19:05.425Z,0.80
2023-05-25T03:21:34.292Z,0.70
2023-05-25T03:24:01.036Z,1.00
2023-05-25T03:26:28.988Z,1.17
2023-05-25T03:28:55.501Z,0.82
2023-05-25T03:31:23.285Z,0.73
2023-05-25T03:33:49.809Z,0.88
2023-05-25T03:36:17.531Z,0.68
2023-05-25T03:38:44.782Z,1.10
2023-05-25T03:41:11.228Z,0.73
2023-05-25T03:43:37.882Z,0.88
2023-05-25T03:46:06.149Z,0.90
2023-05-25T03:48:32.694Z,0.70
2023-05-25T03:50:59.793Z,1.10
2023-05-25T03:53:26.796Z,0.93
2023-05-25T03:55:53.362Z,1.30
2023-05-25T03:58:19.851Z,0.68
2023-05-25T04:00:48.999Z,1.30
2023-05-25T04:03:16.112Z,1.00
2023-05-25T04:05:43.414Z,0.82
2023-05-25T04:08:10.705Z,0.77
2023-05-25T04:10:37.153Z,0.75
2023-05-25T04:13:03.610Z,1.08
2023-05-25T04:15:30.521Z,1.00
2023-05-25T04:18:03.962Z,0.85
2023-05-25T04:20:31.533Z,1.48
2023-05-25T04:22:58.032Z,1.35
2023-05-25T04:25:25.746Z,1.65
2023-05-25T04:27:53.561Z,1.02
2023-05-25T04:30:36.180Z,1.00
2023-05-25T04:35:58.662Z,0.93
2023-05-25T04:38:25.639Z,1.77
2023-05-25T04:40:57.606Z,1.42
2023-05-25T04:43:25.835Z,1.40
2023-05-25T04:45:54.446Z,1.23
2023-05-25T04:48:21.805Z,1.90
2023-05-25T04:50:48.422Z,1.45
2023-05-25T04:53:14.989Z,1.67
2023-05-25T04:55:41.689Z,1.83
2023-05-25T04:58:08.453Z,2.00
2023-05-25T05:00:35.022Z,1.98
2023-05-25T05:03:02.350Z,1.77
2023-05-25T05:05:30.010Z,1.92
2023-05-25T05:07:59.716Z,1.23
2023-05-25T05:10:26.385Z,1.92
2023-05-25T05:12:56.421Z,1.58
2023-05-25T05:15:22.977Z,2.28
2023-05-25T05:17:49.915Z,2.17
2023-05-25T05:20:16.644Z,1.92
2023-05-25T05:22:43.754Z,1.90
2023-05-25T05:25:11.725Z,1.75
2023-05-25T05:27:38.214Z,1.85
2023-05-25T05:30:13.918Z,2.25
2023-05-25T05:32:40.549Z,2.30
2023-05-25T05:35:09.054Z,2.05
2023-05-25T05:37:41.394Z,2.42
2023-05-25T05:40:09.024Z,2.78
2023-05-25T05:42:36.383Z,3.08
2023-05-25T05:45:02.956Z,2.90
2023-05-25T05:47:29.728Z,2.88
2023-05-25T05:49:56.322Z,2.60
2023-05-25T05:52:23.353Z,2.92
2023-05-25T05:54:49.923Z,2.75
2023-05-25T05:57:16.557Z,2.88
2023-05-25T05:59:43.351Z,3.20
2023-05-25T06:02:10.147Z,2.58
2023-05-25T06:04:38.321Z,2.72
2023-05-25T06:07:05.051Z,2.70
2023-05-25T06:09:31.553Z,2.45
2023-05-25T06:11:59.907Z,2.67
2023-05-25T06:14:28.582Z,2.97
2023-05-25T06:16:58.743Z,2.65
2023-05-25T06:19:25.526Z,2.25
2023-05-25T06:21:52.061Z,2.47
2023-05-25T06:24:20.875Z,2.35
2023-05-25T06:26:47.386Z,2.45
2023-05-25T06:29:16.873Z,2.72
2023-05-25T06:31:46.890Z,2.05
2023-05-25T06:34:13.970Z,2.38
2023-05-25T06:36:41.764Z,2.17
2023-05-25T06:39:10.870Z,2.83
2023-05-25T06:41:41.052Z,2.15
2023-05-25T06:44:07.984Z,2.83
2023-05-25T06:46:44.590Z,2.60
2023-05-25T06:49:11.313Z,2.80
2023-05-25T06:51:53.890Z,2.42
2023-05-25T06:54:20.692Z,2.15
2023-05-25T06:56:47.449Z,3.33
2023-05-25T06:59:14.213Z,2.20
2023-05-25T07:01:41.223Z,2.03
2023-05-25T07:04:08.003Z,1.90
2023-05-25T07:06:34.554Z,1.88
2023-05-25T07:09:01.146Z,1.70
2023-05-25T07:11:31.429Z,1.95
2023-05-25T07:13:58.413Z,1.23
2023-05-25T07:16:26.220Z,1.55
2023-05-25T07:18:52.983Z,2.15
2023-05-25T07:21:24.935Z,2.00
2023-05-25T07:23:51.617Z,1.60
2023-05-25T07:26:20.628Z,2.85
2023-05-25T07:28:47.206Z,2.60
2023-05-25T07:31:13.744Z,2.22
2023-05-25T07:33:40.221Z,2.03
2023-05-25T07:36:07.042Z,2.13
2023-05-25T07:38:33.693Z,2.00
2023-05-25T07:41:00.224Z,1.83
2023-05-25T07:43:27.418Z,1.77
2023-05-25T07:45:54.433Z,1.75
2023-05-25T07:48:20.916Z,2.67
2023-05-25T07:50:47.407Z,2.33
2023-05-25T07:53:14.192Z,1.52
2023-05-25T07:55:40.916Z,2.00
2023-05-25T07:58:07.549Z,1.80
2023-05-25T08:00:34.391Z,2.00
2023-05-25T08:03:02.588Z,2.13
2023-05-25T08:05:29.462Z,1.77
2023-05-25T08:07:56.158Z,2.05
2023-05-25T08:10:23.595Z,2.42
2023-05-25T08:12:52.321Z,2.05
2023-05-25T08:15:19.157Z,1.83
2023-05-25T08:17:45.823Z,2.13
2023-05-25T08:20:14.367Z,1.38
2023-05-25T08:22:40.949Z,1.42
2023-05-25T08:25:13.552Z,1.38
2023-05-25T08:27:40.113Z,2.03
2023-05-25T08:30:07.410Z,1.02
2023-05-25T08:32:34.002Z,1.58
2023-05-25T08:35:01.869Z,1.30
2023-05-25T08:37:29.252Z,2.33
2023-05-25T08:39:55.942Z,1.13
2023-05-25T08:42:23.611Z,1.65
2023-05-25T08:44:52.884Z,1.33
2023-05-25T08:47:22.608Z,1.10
2023-05-25T08:52:22.493Z,1.13
2023-05-25T08:54:51.436Z,1.27
2023-05-25T08:57:28.727Z,1.65
2023-05-25T09:00:04.662Z,1.30
2023-05-25T09:02:50.449Z,1.33
2023-05-25T09:05:18.589Z,1.08
2023-05-25T09:07:46.512Z,1.30
2023-05-25T09:10:14.606Z,1.00
2023-05-25T09:12:42.606Z,1.05
2023-05-25T09:15:12.757Z,1.20
2023-05-25T09:17:41.362Z,0.85
2023-05-25T09:20:13.483Z,0.75
2023-05-25T09:22:41.270Z,0.85
2023-05-25T09:25:08.585Z,0.75
2023-05-25T09:27:37.394Z,0.60
2023-05-25T09:30:05.375Z,0.45
2023-05-25T09:32:32.467Z,1.23
2023-05-25T09:35:10.136Z,0.88
2023-05-25T09:37:37.551Z,1.00
2023-05-25T09:40:08.918Z,0.88
2023-05-25T09:42:36.236Z,0.65
2023-05-25T09:45:03.730Z,0.65
2023-05-25T09:47:30.575Z,1.15
2023-05-25T09:49:58.354Z,0.60
2023-05-25T09:52:25.626Z,0.60
2023-05-25T09:54:52.541Z,0.63
2023-05-25T09:57:20.821Z,0.63
2023-05-25T09:59:47.625Z,1.83
2023-05-25T10:02:15.077Z,0.68
2023-05-25T10:04:41.792Z,1.30
2023-05-25T10:07:08.952Z,1.23
2023-05-25T10:09:43.042Z,0.68
2023-05-25T10:12:10.345Z,0.73
2023-05-25T10:14:38.303Z,0.73
2023-05-25T10:17:10.883Z,0.45
2023-05-25T10:19:55.807Z,0.45
2023-05-25T10:22:26.421Z,0.57
2023-05-25T10:25:08.303Z,0.50
2023-05-25T10:27:40.645Z,0.75
2023-05-25T10:30:09.402Z,0.85
2023-05-25T10:32:40.069Z,0.60
2023-05-25T10:35:07.818Z,0.43
2023-05-25T10:37:35.232Z,0.30
2023-05-25T10:40:06.151Z,0.47
2023-05-25T10:42:34.484Z,1.55
2023-05-25T10:45:01.236Z,0.65
2023-05-25T10:47:28.291Z,2.08
2023-05-25T10:50:01.770Z,0.68
2023-05-25T10:52:29.667Z,0.88
2023-05-25T10:55:04.913Z,0.73
2023-05-25T10:57:31.790Z,0.60
2023-05-25T11:00:07.055Z,0.57
2023-05-25T11:02:59.888Z,0.50
2023-05-25T11:05:26.530Z,0.60
2023-05-25T11:07:54.782Z,0.35
2023-05-25T11:10:49.289Z,0.68
2023-05-25T11:13:24.236Z,0.77
2023-05-25T11:16:30.551Z,0.50
2023-05-25T11:18:58.914Z,0.65
2023-05-25T11:21:28.478Z,0.85
2023-05-25T11:24:00.073Z,0.57
2023-05-25T11:26:29.980Z,0.70
2023-05-25T11:29:00.858Z,0.82
2023-05-25T11:31:41.486Z,1.20
2023-05-25T11:34:12.288Z,0.85
2023-05-25T11:36:39.570Z,0.63
2023-05-25T11:39:17.209Z,0.63
2023-05-25T11:41:55.738Z,0.65
2023-05-25T11:44:30.090Z,1.00
2023-05-25T11:46:58.127Z,0.68
2023-05-25T11:49:26.005Z,0.63
2023-05-25T11:51:54.199Z,1.17
2023-05-25T11:54:25.247Z,0.50
2023-05-25T11:56:52.494Z,0.68
2023-05-25T11:59:19.269Z,0.93
2023-05-25T12:02:04.667Z,0.65
2023-05-25T12:04:33.451Z,0.90
2023-05-25T12:07:04.660Z,1.23
2023-05-25T12:09:32.641Z,0.85
2023-05-25T12:12:00.810Z,0.80
2023-05-25T12:14:27.372Z,0.35
2023-05-25T12:16:57.858Z,0.63
2023-05-25T12:19:25.097Z,0.60
2023-05-25T12:21:52.091Z,0.60
2023-05-25T12:24:20.640Z,0.40
2023-05-25T12:26:51.695Z,0.82
2023-05-25T12:29:18.223Z,0.50
2023-05-25T12:31:44.839Z,0.70
2023-05-25T12:34:27.572Z,0.63
2023-05-25T12:36:56.517Z,0.93
2023-05-25T12:39:28.679Z,0.50
2023-05-25T12:41:55.727Z,0.65
2023-05-25T12:44:25.125Z,1.02
2023-05-25T12:46:53.472Z,0.90
2023-05-25T12:49:31.253Z,1.00
2023-05-25T12:52:00.308Z,0.60
2023-05-25T12:54:44.944Z,0.77
2023-05-25T12:57:13.617Z,0.88
2023-05-25T12:59:42.545Z,0.63
2023-05-25T13:02:10.362Z,0.65
2023-05-25T13:04:39.375Z,0.70
2023-05-25T13:07:08.449Z,2.95
2023-05-25T13:09:35.785Z,0.85
2023-05-25T13:12:04.344Z,0.52
2023-05-25T13:14:30.960Z,0.82
2023-05-25T13:16:57.879Z,1.08
2023-05-25T13:19:26.845Z,0.75
2023-05-25T13:22:01.660Z,0.98
2023-05-25T13:26:56.854Z,1.02
2023-05-25T13:29:25.576Z,0.55
2023-05-25T13:31:52.196Z,0.85
2023-05-25T13:34:18.859Z,1.30
2023-05-25T13:36:48.621Z,1.08
2023-05-25T13:39:15.183Z,1.02
2023-05-25T13:41:41.958Z,0.93
2023-05-25T13:44:08.538Z,1.10
2023-05-25T13:46:37.550Z,1.05
2023-05-25T13:49:04.630Z,0.63
2023-05-25T13:51:31.656Z,2.20
2023-05-25T13:53:58.376Z,1.58
2023-05-25T13:56:27.366Z,0.82
2023-05-25T13:58:54.362Z,1.25
2023-05-25T14:01:21.017Z,2.35
2023-05-25T14:03:47.927Z,1.20
2023-05-25T14:06:14.696Z,1.02
2023-05-25T14:08:41.323Z,1.00
2023-05-25T14:11:07.858Z,1.00
2023-05-25T14:13:36.417Z,0.82
2023-05-25T14:16:03.771Z,1.02
2023-05-25T14:18:32.632Z,1.00
2023-05-25T14:20:59.624Z,0.98
2023-05-25T14:23:26.343Z,0.85
2023-05-25T14:25:53.006Z,0.90
2023-05-25T14:28:19.566Z,1.20
2023-05-25T14:30:46.199Z,1.05
2023-05-25T14:33:15.660Z,1.02
2023-05-25T14:35:42.961Z,1.58
2023-05-25T14:38:09.942Z,0.55
2023-05-25T14:40:36.641Z,0.90
2023-05-25T14:43:06.114Z,1.33
2023-05-25T14:45:32.661Z,0.93
2023-05-25T14:48:11.805Z,1.10
2023-05-25T14:50:43.992Z,1.15
2023-05-25T14:53:10.515Z,1.00
2023-05-25T14:55:37.119Z,2.40
2023-05-25T14:58:03.655Z,1.15
2023-05-25T15:00:31.030Z,0.90
2023-05-25T15:02:57.776Z,0.52
2023-05-25T15:05:24.294Z,1.70
2023-05-25T15:07:50.847Z,0.85
2023-05-25T15:10:17.536Z,0.90
2023-05-25T15:12:44.079Z,0.73
2023-05-25T15:15:15.614Z,0.90
2023-05-25T15:17:42.151Z,0.90
2023-05-25T15:20:09.089Z,1.13
2023-05-25T15:22:35.760Z,0.98
2023-05-25T15:25:02.817Z,1.30
2023-05-25T15:27:29.515Z,1.00
2023-05-25T15:29:56.108Z,0.77
2023-05-25T15:32:24.092Z,1.30
2023-05-25T15:34:50.788Z,1.73
2023-05-25T15:37:20.267Z,1.02
2023-05-25T15:39:46.862Z,1.90
2023-05-25T15:42:14.936Z,1.67
2023-05-25T15:44:41.601Z,1.10
2023-05-25T15:47:08.295Z,1.05
2023-05-25T15:49:36.991Z,0.90
2023-05-25T15:52:03.980Z,0.90
2023-05-25T15:54:30.464Z,0.77
2023-05-25T15:56:56.943Z,0.93
2023-05-25T15:59:23.456Z,0.73
2023-05-25T16:01:49.993Z,1.42
2023-05-25T16:04:16.638Z,1.00
2023-05-25T16:06:43.282Z,1.25
2023-05-25T16:09:09.902Z,2.95
2023-05-25T16:11:36.506Z,1.02
2023-05-25T16:14:02.992Z,0.88
2023-05-25T16:16:29.724Z,1.75
2023-05-25T16:18:56.375Z,0.90
2023-05-25T16:21:22.998Z,1.08
2023-05-25T16:23:49.639Z,1.05
2023-05-25T16:26:16.286Z,1.00
2023-05-25T16:28:42.782Z,1.33
2023-05-25T16:31:13.490Z,1.17
2023-05-25T16:33:41.979Z,1.33
2023-05-25T16:36:08.567Z,0.73
2023-05-25T16:38:35.245Z,1.40
2023-05-25T16:41:01.705Z,1.30
2023-05-25T16:43:28.796Z,1.15
2023-05-25T16:45:55.306Z,1.15
2023-05-25T16:48:23.224Z,1.00
2023-05-25T16:50:49.923Z,1.50
2023-05-25T16:53:16.587Z,1.95
2023-05-25T16:55:43.062Z,1.75
2023-05-25T16:58:09.532Z,3.22
2023-05-25T17:00:36.100Z,1.73
2023-05-25T17:03:02.709Z,1.50
2023-05-25T17:05:30.512Z,2.05
2023-05-25T17:07:57.002Z,2.47
2023-05-25T17:15:48.844Z,1.77
2023-05-25T17:18:17.069Z,2.58
2023-05-25T17:20:43.975Z,1.60
2023-05-25T17:23:11.288Z,2.38
2023-05-25T17:25:39.851Z,1.50
2023-05-25T17:28:17.436Z,2.33
2023-05-25T17:30:44.214Z,2.15
2023-05-25T17:33:19.253Z,1.83
2023-05-25T17:35:46.256Z,4.05
2023-05-25T17:38:12.893Z,3.38
2023-05-25T17:40:39.364Z,2.38
2023-05-25T17:43:05.862Z,2.40
2023-05-25T17:45:49.626Z,0.98
2023-05-25T17:48:16.864Z,1.75
2023-05-25T17:50:43.443Z,1.15
2023-05-25T17:53:09.975Z,0.82
2023-05-25T17:55:36.765Z,1.48
2023-05-25T17:58:03.432Z,1.50
2023-05-25T18:00:30.695Z,1.00
2023-05-25T18:02:57.433Z,1.08
2023-05-25T18:05:24.052Z,0.93
2023-05-25T18:07:50.971Z,1.75
2023-05-25T18:10:17.537Z,0.98
2023-05-25T18:12:46.124Z,1.17
2023-05-25T18:15:12.821Z,1.48
2023-05-25T18:17:39.509Z,1.00
2023-05-25T18:20:06.726Z,1.33
2023-05-25T18:22:33.252Z,1.63
2023-05-25T18:25:00.165Z,1.20
2023-05-25T18:27:26.686Z,1.48
2023-05-25T18:29:53.429Z,1.52
2023-05-25T18:32:20.030Z,1.73
2023-05-25T18:34:48.297Z,1.33
2023-05-25T18:37:15.125Z,1.15
2023-05-25T18:39:42.086Z,1.20
2023-05-25T18:42:08.706Z,1.48
2023-05-25T18:44:38.792Z,2.00
2023-05-25T18:47:05.718Z,0.82
2023-05-25T18:49:34.492Z,1.70
2023-05-25T18:52:01.494Z,0.93
2023-05-25T18:54:28.178Z,1.67
2023-05-25T18:56:54.634Z,1.00
2023-05-25T18:59:21.521Z,1.17
2023-05-25T19:01:48.060Z,1.20
2023-05-25T19:04:14.791Z,1.25
2023-05-25T19:06:41.360Z,1.20
2023-05-25T19:09:08.082Z,1.35
2023-05-25T19:11:34.612Z,1.35
2023-05-25T19:14:01.230Z,1.15
2023-05-25T19:16:27.783Z,1.23
2023-05-25T19:18:54.626Z,0.82
2023-05-25T19:21:21.141Z,2.13
2023-05-25T19:23:47.675Z,1.08
2023-05-25T19:26:14.237Z,0.93
2023-05-25T19:28:40.721Z,0.93
2023-05-25T19:31:07.210Z,1.58
2023-05-25T19:33:33.848Z,1.08
2023-05-25T19:36:00.356Z,1.83
2023-05-25T19:38:31.504Z,1.35
2023-05-25T19:41:07.217Z,1.38
2023-05-25T19:43:40.122Z,1.52
2023-05-25T19:46:07.123Z,1.73
2023-05-25T19:48:36.622Z,1.50
2023-05-25T19:51:03.548Z,1.13
2023-05-25T19:53:51.754Z,1.95
2023-05-25T19:56:44.244Z,0.88
2023-05-25T19:59:11.325Z,1.48
2023-05-25T20:01:38.007Z,0.85
2023-05-25T20:04:04.630Z,1.52
2023-05-25T20:06:31.438Z,1.48
2023-05-25T20:08:58.818Z,1.30
2023-05-25T20:11:26.063Z,1.50
2023-05-25T20:13:55.046Z,1.77
2023-05-25T20:16:22.208Z,1.20
2023-05-25T20:18:48.863Z,1.02
2023-05-25T20:21:16.006Z,0.93
2023-05-25T20:23:42.819Z,1.70
2023-05-25T20:26:09.629Z,1.23
2023-05-25T20:28:36.687Z,1.17
2023-05-25T20:31:06.662Z,1.35
2023-05-25T20:33:33.438Z,0.82
2023-05-25T20:36:00.470Z,0.93
2023-05-25T20:38:27.180Z,1.05
2023-05-25T20:40:53.848Z,2.40
2023-05-25T20:43:20.360Z,1.35
2023-05-25T20:45:47.140Z,1.63
2023-05-25T20:48:14.931Z,1.13
2023-05-25T20:50:42.837Z,1.00
2023-05-25T20:53:11.246Z,0.75
2023-05-25T20:55:37.858Z,1.02
2023-05-25T20:58:04.423Z,1.17
2023-05-25T21:00:31.355Z,0.85
2023-05-25T21:02:58.001Z,1.63
2023-05-25T21:05:24.605Z,1.17
2023-05-25T21:07:51.788Z,0.90
2023-05-25T21:10:18.514Z,0.95
2023-05-25T21:12:45.092Z,1.40
2023-05-25T21:15:11.791Z,1.13
2023-05-25T21:17:38.347Z,0.70
2023-05-25T21:20:05.690Z,1.52
2023-05-25T21:22:32.306Z,0.98
2023-05-25T21:24:59.052Z,0.88
2023-05-25T21:27:27.132Z,1.15
2023-05-25T21:29:55.086Z,0.65
2023-05-25T21:32:21.929Z,1.95
2023-05-25T21:34:48.470Z,1.50
2023-05-25T21:37:15.211Z,2.45
2023-05-25T21:39:51.492Z,1.27
2023-05-25T21:42:18.097Z,0.80
2023-05-25T21:44:44.599Z,1.05
2023-05-25T21:47:11.596Z,1.23
2023-05-25T21:49:38.176Z,1.13
2023-05-25T21:52:18.002Z,1.40
2023-05-25T21:54:44.509Z,1.90
2023-05-25T21:57:36.756Z,1.05
2023-05-25T22:00:06.184Z,1.30
2023-05-25T22:02:39.270Z,1.38
2023-05-25T22:05:06.054Z,1.63
2023-05-25T22:07:32.555Z,1.55
2023-05-25T22:09:59.071Z,1.05
2023-05-25T22:12:25.666Z,1.33
2023-05-25T22:14:52.329Z,1.98
2023-05-25T22:17:18.964Z,0.65
2023-05-25T22:19:52.168Z,1.25
2023-05-25T22:22:25.978Z,1.38
2023-05-25T22:24:57.646Z,1.13
2023-05-25T22:27:26.755Z,1.30
2023-05-25T22:29:59.414Z,0.85
2023-05-25T22:32:27.456Z,1.17
2023-05-25T22:34:54.366Z,1.00
2023-05-25T22:37:21.293Z,1.17
2023-05-25T22:39:47.983Z,1.63
2023-05-25T22:42:14.596Z,1.60
2023-05-25T22:44:45.522Z,1.25
2023-05-25T22:47:12.339Z,1.13
2023-05-25T22:49:41.388Z,0.80
2023-05-25T22:52:16.081Z,1.05
2023-05-25T22:54:42.634Z,0.73
2023-05-25T22:57:09.930Z,0.63
2023-05-25T22:59:36.873Z,1.80
2023-05-25T23:02:03.683Z,1.40
2023-05-25T23:04:30.293Z,0.98
2023-05-25T23:06:56.783Z,1.08
2023-05-25T23:09:23.319Z,2.17
2023-05-25T23:11:49.983Z,0.90
2023-05-25T23:14:17.277Z,2.47
2023-05-25T23:16:44.600Z,1.48
2023-05-25T23:19:11.516Z,2.63
2023-05-25T23:21:38.111Z,1.08
2023-05-25T23:24:05.017Z,1.35
2023-05-25T23:26:31.826Z,2.05
2023-05-25T23:28:58.555Z,0.80
2023-05-25T23:31:25.586Z,1.02
2023-05-25T23:33:52.381Z,1.35
2023-05-25T23:36:19.091Z,1.58
2023-05-25T23:38:45.793Z,0.73
2023-05-25T23:41:12.820Z,1.02
2023-05-25T23:43:39.502Z,1.25
2023-05-25T23:46:06.525Z,1.00
2023-05-25T23:48:33.131Z,1.52
2023-05-25T23:50:59.742Z,0.52
2023-05-25T23:53:26.240Z,0.80
2023-05-25T23:55:52.753Z,1.13
2023-05-25T23:58:19.248Z,1.13
